sensor_id;sensor_type;location;lat;lon;timestamp;temperature;humidity
16781;DHT22;8507;50.056;8.248;2023-09-19T00:01:31;18.50;99.90
16781;DHT22;8507;50.056;8.248;2023-09-19T00:03:57;18.30;99.90
16781;DHT22;8507;50.056;8.248;2023-09-19T00:06:23;18.20;99.90
16781;DHT22;8507;50.056;8.248;2023-09-19T00:08:52;18.20;99.90
16781;DHT22;8507;50.056;8.248;2023-09-19T00:11:18;18.30;99.90
16781;DHT22;8507;50.056;8.248;2023-09-19T00:13:47;18.30;99.90
16781;DHT22;8507;50.056;8.248;2023-09-19T00:16:15;18.20;99.90
16781;DHT22;8507;50.056;8.248;2023-09-19T00:18:40;18.20;99.90
16781;DHT22;8507;50.056;8.248;2023-09-19T00:21:06;18.10;99.90
16781;DHT22;8507;50.056;8.248;2023-09-19T00:23:32;18.00;99.90
16781;DHT22;8507;50.056;8.248;2023-09-19T00:25:59;18.10;99.90
16781;DHT22;8507;50.056;8.248;2023-09-19T00:28:25;18.00;99.90
16781;DHT22;8507;50.056;8.248;2023-09-19T00:30:51;18.00;99.90
16781;DHT22;8507;50.056;8.248;2023-09-19T00:33:17;18.00;99.90
16781;DHT22;8507;50.056;8.248;2023-09-19T00:35:54;17.70;99.90
16781;DHT22;8507;50.056;8.248;2023-09-19T00:38:21;17.60;99.90
16781;DHT22;8507;50.056;8.248;2023-09-19T00:40:48;17.70;99.90
16781;DHT22;8507;50.056;8.248;2023-09-19T00:43:14;17.60;99.90
16781;DHT22;8507;50.056;8.248;2023-09-19T00:45:47;17.70;99.90
16781;DHT22;8507;50.056;8.248;2023-09-19T00:48:14;17.80;99.90
16781;DHT22;8507;50.056;8.248;2023-09-19T00:50:42;17.90;99.90
16781;DHT22;8507;50.056;8.248;2023-09-19T00:53:09;18.10;99.90
16781;DHT22;8507;50.056;8.248;2023-09-19T00:55:39;18.10;99.90
16781;DHT22;8507;50.056;8.248;2023-09-19T00:58:08;18.10;99.90
16781;DHT22;8507;50.056;8.248;2023-09-19T01:00:33;18.20;99.90
16781;DHT22;8507;50.056;8.248;2023-09-19T01:03:02;18.10;99.90
16781;DHT22;8507;50.056;8.248;2023-09-19T01:05:29;18.20;99.90
16781;DHT22;8507;50.056;8.248;2023-09-19T01:07:55;18.20;99.90
16781;DHT22;8507;50.056;8.248;2023-09-19T01:10:21;18.10;99.90
16781;DHT22;8507;50.056;8.248;2023-09-19T01:18:43;17.90;99.90
16781;DHT22;8507;50.056;8.248;2023-09-19T01:21:37;18.00;99.90
16781;DHT22;8507;50.056;8.248;2023-09-19T01:29:42;17.80;99.90
16781;DHT22;8507;50.056;8.248;2023-09-19T01:32:11;17.90;99.90
16781;DHT22;8507;50.056;8.248;2023-09-19T01:34:48;17.90;99.90
16781;DHT22;8507;50.056;8.248;2023-09-19T01:37:16;18.00;99.90
16781;DHT22;8507;50.056;8.248;2023-09-19T01:43:20;17.90;99.90
16781;DHT22;8507;50.056;8.248;2023-09-19T01:51:10;17.90;99.90
16781;DHT22;8507;50.056;8.248;2023-09-19T01:53:51;17.90;99.90
16781;DHT22;8507;50.056;8.248;2023-09-19T01:56:28;17.90;99.90
16781;DHT22;8507;50.056;8.248;2023-09-19T01:59:05;17.90;99.90
16781;DHT22;8507;50.056;8.248;2023-09-19T02:01:33;17.90;99.90
16781;DHT22;8507;50.056;8.248;2023-09-19T02:04:00;17.90;99.90
16781;DHT22;8507;50.056;8.248;2023-09-19T02:06:26;17.90;99.90
16781;DHT22;8507;50.056;8.248;2023-09-19T02:08:53;17.70;99.90
16781;DHT22;8507;50.056;8.248;2023-09-19T02:11:19;17.80;99.90
16781;DHT22;8507;50.056;8.248;2023-09-19T02:13:44;17.70;99.90
16781;DHT22;8507;50.056;8.248;2023-09-19T02:16:10;17.60;99.90
16781;DHT22;8507;50.056;8.248;2023-09-19T02:18:36;17.60;99.90
16781;DHT22;8507;50.056;8.248;2023-09-19T02:21:02;17.60;99.90
16781;DHT22;8507;50.056;8.248;2023-09-19T02:23:29;17.50;99.90
16781;DHT22;8507;50.056;8.248;2023-09-19T02:25:58;17.50;99.90
16781;DHT22;8507;50.056;8.248;2023-09-19T02:28:29;17.40;99.90
16781;DHT22;8507;50.056;8.248;2023-09-19T02:30:56;17.50;99.90
16781;DHT22;8507;50.056;8.248;2023-09-19T02:33:22;17.40;99.90
16781;DHT22;8507;50.056;8.248;2023-09-19T02:35:47;17.40;99.90
16781;DHT22;8507;50.056;8.248;2023-09-19T02:38:13;17.40;99.90
16781;DHT22;8507;50.056;8.248;2023-09-19T02:40:40;17.50;99.90
16781;DHT22;8507;50.056;8.248;2023-09-19T02:43:05;17.50;99.90
16781;DHT22;8507;50.056;8.248;2023-09-19T02:45:32;17.40;99.90
16781;DHT22;8507;50.056;8.248;2023-09-19T02:47:57;17.30;99.90
16781;DHT22;8507;50.056;8.248;2023-09-19T02:50:23;17.40;99.90
16781;DHT22;8507;50.056;8.248;2023-09-19T02:52:49;17.40;99.90
16781;DHT22;8507;50.056;8.248;2023-09-19T02:55:16;17.40;99.90
16781;DHT22;8507;50.056;8.248;2023-09-19T02:57:49;17.40;99.90
16781;DHT22;8507;50.056;8.248;2023-09-19T03:00:15;17.40;99.90
16781;DHT22;8507;50.056;8.248;2023-09-19T03:02:41;17.40;99.90
16781;DHT22;8507;50.056;8.248;2023-09-19T03:05:07;17.30;99.90
16781;DHT22;8507;50.056;8.248;2023-09-19T03:07:33;17.30;99.90
16781;DHT22;8507;50.056;8.248;2023-09-19T03:10:00;17.30;99.90
16781;DHT22;8507;50.056;8.248;2023-09-19T03:12:26;17.30;99.90
16781;DHT22;8507;50.056;8.248;2023-09-19T03:14:51;17.20;99.90
16781;DHT22;8507;50.056;8.248;2023-09-19T03:17:17;17.20;99.90
16781;DHT22;8507;50.056;8.248;2023-09-19T03:19:45;17.10;99.90
16781;DHT22;8507;50.056;8.248;2023-09-19T03:22:10;16.90;99.90
16781;DHT22;8507;50.056;8.248;2023-09-19T03:24:36;16.70;99.90
16781;DHT22;8507;50.056;8.248;2023-09-19T03:27:03;16.80;99.90
16781;DHT22;8507;50.056;8.248;2023-09-19T03:29:29;16.90;99.90
16781;DHT22;8507;50.056;8.248;2023-09-19T03:31:55;16.90;99.90
16781;DHT22;8507;50.056;8.248;2023-09-19T03:34:20;16.90;99.90
16781;DHT22;8507;50.056;8.248;2023-09-19T03:36:46;16.80;99.90
16781;DHT22;8507;50.056;8.248;2023-09-19T03:39:12;16.80;99.90
16781;DHT22;8507;50.056;8.248;2023-09-19T03:41:41;16.80;99.90
16781;DHT22;8507;50.056;8.248;2023-09-19T03:44:07;16.70;99.90
16781;DHT22;8507;50.056;8.248;2023-09-19T03:46:32;16.80;99.90
16781;DHT22;8507;50.056;8.248;2023-09-19T03:48:59;16.70;99.90
16781;DHT22;8507;50.056;8.248;2023-09-19T03:51:25;16.60;99.90
16781;DHT22;8507;50.056;8.248;2023-09-19T03:53:50;16.60;99.90
16781;DHT22;8507;50.056;8.248;2023-09-19T03:56:16;16.50;99.90
16781;DHT22;8507;50.056;8.248;2023-09-19T03:58:42;16.60;99.90
16781;DHT22;8507;50.056;8.248;2023-09-19T04:01:07;16.50;99.90
16781;DHT22;8507;50.056;8.248;2023-09-19T04:03:34;16.50;99.90
16781;DHT22;8507;50.056;8.248;2023-09-19T04:06:16;16.50;99.90
16781;DHT22;8507;50.056;8.248;2023-09-19T04:08:42;16.50;99.90
16781;DHT22;8507;50.056;8.248;2023-09-19T04:11:08;16.50;99.90
16781;DHT22;8507;50.056;8.248;2023-09-19T04:13:34;16.20;99.90
16781;DHT22;8507;50.056;8.248;2023-09-19T04:15:59;16.10;99.90
16781;DHT22;8507;50.056;8.248;2023-09-19T04:18:25;16.10;99.90
16781;DHT22;8507;50.056;8.248;2023-09-19T04:20:51;16.00;99.90
16781;DHT22;8507;50.056;8.248;2023-09-19T04:23:17;16.20;99.90
16781;DHT22;8507;50.056;8.248;2023-09-19T04:25:45;16.10;99.90
16781;DHT22;8507;50.056;8.248;2023-09-19T04:28:10;16.10;99.90
16781;DHT22;8507;50.056;8.248;2023-09-19T04:30:37;16.30;99.90
16781;DHT22;8507;50.056;8.248;2023-09-19T04:33:03;16.10;99.90
16781;DHT22;8507;50.056;8.248;2023-09-19T04:35:28;16.10;99.90
16781;DHT22;8507;50.056;8.248;2023-09-19T04:37:56;16.10;99.90
16781;DHT22;8507;50.056;8.248;2023-09-19T04:40:22;16.20;99.90
16781;DHT22;8507;50.056;8.248;2023-09-19T04:42:53;16.10;99.90
16781;DHT22;8507;50.056;8.248;2023-09-19T04:45:25;16.10;99.90
16781;DHT22;8507;50.056;8.248;2023-09-19T04:47:51;16.20;99.90
16781;DHT22;8507;50.056;8.248;2023-09-19T04:50:17;16.30;99.90
16781;DHT22;8507;50.056;8.248;2023-09-19T04:52:44;16.30;99.90
16781;DHT22;8507;50.056;8.248;2023-09-19T04:55:13;16.30;99.90
16781;DHT22;8507;50.056;8.248;2023-09-19T04:57:43;16.10;99.90
16781;DHT22;8507;50.056;8.248;2023-09-19T05:00:11;16.00;99.90
16781;DHT22;8507;50.056;8.248;2023-09-19T05:02:39;16.00;99.90
16781;DHT22;8507;50.056;8.248;2023-09-19T05:05:06;16.00;99.90
16781;DHT22;8507;50.056;8.248;2023-09-19T05:07:32;16.00;99.90
16781;DHT22;8507;50.056;8.248;2023-09-19T05:09:59;16.00;99.90
16781;DHT22;8507;50.056;8.248;2023-09-19T05:12:26;16.00;99.90
16781;DHT22;8507;50.056;8.248;2023-09-19T05:14:52;16.00;99.90
16781;DHT22;8507;50.056;8.248;2023-09-19T05:17:18;16.00;99.90
16781;DHT22;8507;50.056;8.248;2023-09-19T05:19:43;16.00;99.90
16781;DHT22;8507;50.056;8.248;2023-09-19T05:22:09;16.10;99.90
16781;DHT22;8507;50.056;8.248;2023-09-19T05:24:34;16.10;99.90
16781;DHT22;8507;50.056;8.248;2023-09-19T05:27:00;16.10;99.90
16781;DHT22;8507;50.056;8.248;2023-09-19T05:29:26;16.10;99.90
16781;DHT22;8507;50.056;8.248;2023-09-19T05:31:51;16.20;99.90
16781;DHT22;8507;50.056;8.248;2023-09-19T05:34:20;16.20;99.90
16781;DHT22;8507;50.056;8.248;2023-09-19T05:36:45;16.20;99.90
16781;DHT22;8507;50.056;8.248;2023-09-19T05:39:11;16.20;99.90
16781;DHT22;8507;50.056;8.248;2023-09-19T05:41:37;16.30;99.90
16781;DHT22;8507;50.056;8.248;2023-09-19T05:44:05;16.40;99.90
16781;DHT22;8507;50.056;8.248;2023-09-19T05:46:32;16.40;99.90
16781;DHT22;8507;50.056;8.248;2023-09-19T05:48:57;16.40;99.90
16781;DHT22;8507;50.056;8.248;2023-09-19T05:51:23;16.50;99.90
16781;DHT22;8507;50.056;8.248;2023-09-19T05:53:49;16.40;99.90
16781;DHT22;8507;50.056;8.248;2023-09-19T05:56:15;16.40;99.90
16781;DHT22;8507;50.056;8.248;2023-09-19T05:58:42;16.50;99.90
16781;DHT22;8507;50.056;8.248;2023-09-19T06:01:09;16.50;99.90
16781;DHT22;8507;50.056;8.248;2023-09-19T06:03:35;16.50;99.90
16781;DHT22;8507;50.056;8.248;2023-09-19T06:06:04;16.60;99.90
16781;DHT22;8507;50.056;8.248;2023-09-19T06:08:34;16.60;99.90
16781;DHT22;8507;50.056;8.248;2023-09-19T06:11:00;16.70;99.90
16781;DHT22;8507;50.056;8.248;2023-09-19T06:13:28;16.70;99.90
16781;DHT22;8507;50.056;8.248;2023-09-19T06:15:55;16.80;99.90
16781;DHT22;8507;50.056;8.248;2023-09-19T06:18:21;16.90;99.90
16781;DHT22;8507;50.056;8.248;2023-09-19T06:20:51;16.90;99.90
16781;DHT22;8507;50.056;8.248;2023-09-19T06:23:17;16.90;99.90
16781;DHT22;8507;50.056;8.248;2023-09-19T06:25:45;16.90;99.90
16781;DHT22;8507;50.056;8.248;2023-09-19T06:28:10;17.00;99.90
16781;DHT22;8507;50.056;8.248;2023-09-19T06:30:43;17.00;99.90
16781;DHT22;8507;50.056;8.248;2023-09-19T06:33:09;17.00;99.90
16781;DHT22;8507;50.056;8.248;2023-09-19T06:35:37;17.00;99.90
16781;DHT22;8507;50.056;8.248;2023-09-19T06:38:03;17.20;99.90
16781;DHT22;8507;50.056;8.248;2023-09-19T06:40:29;17.30;99.90
16781;DHT22;8507;50.056;8.248;2023-09-19T06:42:56;17.30;99.90
16781;DHT22;8507;50.056;8.248;2023-09-19T06:45:22;17.40;99.90
16781;DHT22;8507;50.056;8.248;2023-09-19T06:47:49;17.50;99.90
16781;DHT22;8507;50.056;8.248;2023-09-19T06:50:15;17.60;99.90
16781;DHT22;8507;50.056;8.248;2023-09-19T06:52:45;17.70;99.90
16781;DHT22;8507;50.056;8.248;2023-09-19T06:55:12;17.80;99.90
16781;DHT22;8507;50.056;8.248;2023-09-19T06:57:39;17.90;99.90
16781;DHT22;8507;50.056;8.248;2023-09-19T07:00:06;17.80;99.90
16781;DHT22;8507;50.056;8.248;2023-09-19T07:02:59;17.90;99.90
16781;DHT22;8507;50.056;8.248;2023-09-19T07:05:27;17.90;99.90
16781;DHT22;8507;50.056;8.248;2023-09-19T07:07:53;17.90;99.90
16781;DHT22;8507;50.056;8.248;2023-09-19T07:10:20;17.80;99.90
16781;DHT22;8507;50.056;8.248;2023-09-19T07:12:45;17.80;99.90
16781;DHT22;8507;50.056;8.248;2023-09-19T07:15:11;17.80;99.90
16781;DHT22;8507;50.056;8.248;2023-09-19T07:17:36;17.80;99.90
16781;DHT22;8507;50.056;8.248;2023-09-19T07:20:02;17.90;99.90
16781;DHT22;8507;50.056;8.248;2023-09-19T07:22:33;17.90;99.90
16781;DHT22;8507;50.056;8.248;2023-09-19T07:24:58;18.00;99.90
16781;DHT22;8507;50.056;8.248;2023-09-19T07:27:24;18.00;99.90
16781;DHT22;8507;50.056;8.248;2023-09-19T07:29:50;18.10;99.90
16781;DHT22;8507;50.056;8.248;2023-09-19T07:32:15;18.10;99.90
16781;DHT22;8507;50.056;8.248;2023-09-19T07:34:42;18.20;99.90
16781;DHT22;8507;50.056;8.248;2023-09-19T07:37:10;18.20;99.90
16781;DHT22;8507;50.056;8.248;2023-09-19T07:39:35;18.30;99.90
16781;DHT22;8507;50.056;8.248;2023-09-19T07:42:01;18.30;99.90
16781;DHT22;8507;50.056;8.248;2023-09-19T07:44:26;18.30;99.90
16781;DHT22;8507;50.056;8.248;2023-09-19T07:46:52;18.40;99.90
16781;DHT22;8507;50.056;8.248;2023-09-19T07:49:19;18.30;99.90
16781;DHT22;8507;50.056;8.248;2023-09-19T07:51:44;18.20;99.90
16781;DHT22;8507;50.056;8.248;2023-09-19T07:54:12;18.00;99.90
16781;DHT22;8507;50.056;8.248;2023-09-19T07:56:40;18.10;99.90
16781;DHT22;8507;50.056;8.248;2023-09-19T07:59:05;18.20;99.90
16781;DHT22;8507;50.056;8.248;2023-09-19T08:01:31;18.30;99.90
16781;DHT22;8507;50.056;8.248;2023-09-19T08:03:58;18.40;99.90
16781;DHT22;8507;50.056;8.248;2023-09-19T08:06:24;18.40;99.90
16781;DHT22;8507;50.056;8.248;2023-09-19T08:08:52;18.50;99.90
16781;DHT22;8507;50.056;8.248;2023-09-19T08:11:22;18.60;99.90
16781;DHT22;8507;50.056;8.248;2023-09-19T08:13:50;18.70;99.90
16781;DHT22;8507;50.056;8.248;2023-09-19T08:16:16;18.90;99.90
16781;DHT22;8507;50.056;8.248;2023-09-19T08:18:47;18.80;99.90
16781;DHT22;8507;50.056;8.248;2023-09-19T08:21:13;18.70;99.90
16781;DHT22;8507;50.056;8.248;2023-09-19T08:23:40;18.80;99.90
16781;DHT22;8507;50.056;8.248;2023-09-19T08:26:06;18.90;99.90
16781;DHT22;8507;50.056;8.248;2023-09-19T08:28:33;19.10;99.90
16781;DHT22;8507;50.056;8.248;2023-09-19T08:31:03;19.10;99.90
16781;DHT22;8507;50.056;8.248;2023-09-19T08:33:34;18.90;99.90
16781;DHT22;8507;50.056;8.248;2023-09-19T08:36:01;19.00;99.90
16781;DHT22;8507;50.056;8.248;2023-09-19T08:38:27;19.10;99.90
16781;DHT22;8507;50.056;8.248;2023-09-19T08:41:00;19.00;99.90
16781;DHT22;8507;50.056;8.248;2023-09-19T08:43:26;18.80;99.90
16781;DHT22;8507;50.056;8.248;2023-09-19T08:45:58;18.80;99.90
16781;DHT22;8507;50.056;8.248;2023-09-19T08:48:29;19.10;99.90
16781;DHT22;8507;50.056;8.248;2023-09-19T08:51:05;19.20;99.90
16781;DHT22;8507;50.056;8.248;2023-09-19T08:53:52;19.20;99.90
16781;DHT22;8507;50.056;8.248;2023-09-19T08:56:20;19.40;99.90
16781;DHT22;8507;50.056;8.248;2023-09-19T08:58:51;19.30;99.90
16781;DHT22;8507;50.056;8.248;2023-09-19T09:01:18;19.50;99.90
16781;DHT22;8507;50.056;8.248;2023-09-19T09:03:51;19.50;99.90
16781;DHT22;8507;50.056;8.248;2023-09-19T09:06:18;19.30;99.90
16781;DHT22;8507;50.056;8.248;2023-09-19T09:08:46;19.40;99.90
16781;DHT22;8507;50.056;8.248;2023-09-19T09:11:13;19.50;99.90
16781;DHT22;8507;50.056;8.248;2023-09-19T09:13:40;19.50;99.90
16781;DHT22;8507;50.056;8.248;2023-09-19T09:16:07;19.50;99.90
16781;DHT22;8507;50.056;8.248;2023-09-19T09:18:33;19.80;99.90
16781;DHT22;8507;50.056;8.248;2023-09-19T09:20:59;19.80;99.90
16781;DHT22;8507;50.056;8.248;2023-09-19T09:23:27;19.90;99.90
16781;DHT22;8507;50.056;8.248;2023-09-19T09:25:55;20.00;99.90
16781;DHT22;8507;50.056;8.248;2023-09-19T09:28:28;20.10;99.90
16781;DHT22;8507;50.056;8.248;2023-09-19T09:30:55;20.00;99.90
16781;DHT22;8507;50.056;8.248;2023-09-19T09:33:21;19.90;99.90
16781;DHT22;8507;50.056;8.248;2023-09-19T09:35:55;19.80;99.90
16781;DHT22;8507;50.056;8.248;2023-09-19T09:38:27;19.90;99.90
16781;DHT22;8507;50.056;8.248;2023-09-19T09:40:56;20.00;99.90
16781;DHT22;8507;50.056;8.248;2023-09-19T09:46:16;20.20;99.90
16781;DHT22;8507;50.056;8.248;2023-09-19T09:49:09;20.30;99.90
16781;DHT22;8507;50.056;8.248;2023-09-19T09:52:02;20.50;99.90
16781;DHT22;8507;50.056;8.248;2023-09-19T09:54:33;20.50;99.90
16781;DHT22;8507;50.056;8.248;2023-09-19T09:57:05;20.50;99.90
16781;DHT22;8507;50.056;8.248;2023-09-19T10:02:17;20.70;99.90
16781;DHT22;8507;50.056;8.248;2023-09-19T10:04:58;20.70;99.90
16781;DHT22;8507;50.056;8.248;2023-09-19T10:07:32;20.70;99.90
16781;DHT22;8507;50.056;8.248;2023-09-19T10:10:05;20.60;99.90
16781;DHT22;8507;50.056;8.248;2023-09-19T10:12:55;20.50;99.90
16781;DHT22;8507;50.056;8.248;2023-09-19T10:15:31;20.70;99.90
16781;DHT22;8507;50.056;8.248;2023-09-19T10:18:00;20.90;99.90
16781;DHT22;8507;50.056;8.248;2023-09-19T10:20:27;21.00;99.90
16781;DHT22;8507;50.056;8.248;2023-09-19T10:22:56;21.00;99.90
16781;DHT22;8507;50.056;8.248;2023-09-19T10:25:25;21.00;99.90
16781;DHT22;8507;50.056;8.248;2023-09-19T10:27:53;21.20;99.90
16781;DHT22;8507;50.056;8.248;2023-09-19T10:30:22;21.40;99.90
16781;DHT22;8507;50.056;8.248;2023-09-19T10:32:55;21.50;99.90
16781;DHT22;8507;50.056;8.248;2023-09-19T10:35:22;20.90;99.90
16781;DHT22;8507;50.056;8.248;2023-09-19T10:37:50;20.70;99.90
16781;DHT22;8507;50.056;8.248;2023-09-19T10:40:18;20.70;99.90
16781;DHT22;8507;50.056;8.248;2023-09-19T10:42:46;20.60;99.90
16781;DHT22;8507;50.056;8.248;2023-09-19T10:45:15;20.60;99.90
16781;DHT22;8507;50.056;8.248;2023-09-19T10:47:45;20.80;99.90
16781;DHT22;8507;50.056;8.248;2023-09-19T10:50:20;21.00;99.90
16781;DHT22;8507;50.056;8.248;2023-09-19T10:52:50;21.50;99.90
16781;DHT22;8507;50.056;8.248;2023-09-19T10:55:24;21.80;99.90
16781;DHT22;8507;50.056;8.248;2023-09-19T10:57:50;21.90;99.90
16781;DHT22;8507;50.056;8.248;2023-09-19T11:00:17;21.80;99.90
16781;DHT22;8507;50.056;8.248;2023-09-19T11:05:38;21.80;99.90
16781;DHT22;8507;50.056;8.248;2023-09-19T11:08:07;21.80;99.90
16781;DHT22;8507;50.056;8.248;2023-09-19T11:10:51;21.50;99.90
16781;DHT22;8507;50.056;8.248;2023-09-19T11:13:24;21.10;99.90
16781;DHT22;8507;50.056;8.248;2023-09-19T11:26:45;21.40;99.90
16781;DHT22;8507;50.056;8.248;2023-09-19T11:29:27;21.40;99.90
16781;DHT22;8507;50.056;8.248;2023-09-19T11:31:54;21.40;99.90
16781;DHT22;8507;50.056;8.248;2023-09-19T11:39:39;21.60;99.90
16781;DHT22;8507;50.056;8.248;2023-09-19T11:42:43;21.50;99.90
16781;DHT22;8507;50.056;8.248;2023-09-19T11:48:23;21.70;99.90
16781;DHT22;8507;50.056;8.248;2023-09-19T11:50:51;21.80;99.90
16781;DHT22;8507;50.056;8.248;2023-09-19T11:53:17;21.90;99.90
16781;DHT22;8507;50.056;8.248;2023-09-19T11:55:45;21.90;99.90
16781;DHT22;8507;50.056;8.248;2023-09-19T11:58:13;22.00;99.90
16781;DHT22;8507;50.056;8.248;2023-09-19T12:00:40;21.90;99.90
16781;DHT22;8507;50.056;8.248;2023-09-19T12:03:10;21.80;99.90
16781;DHT22;8507;50.056;8.248;2023-09-19T12:05:36;21.60;99.90
16781;DHT22;8507;50.056;8.248;2023-09-19T12:08:06;21.80;99.90
16781;DHT22;8507;50.056;8.248;2023-09-19T12:10:49;21.80;99.90
16781;DHT22;8507;50.056;8.248;2023-09-19T12:13:18;21.90;99.90
16781;DHT22;8507;50.056;8.248;2023-09-19T12:15:44;21.90;99.90
16781;DHT22;8507;50.056;8.248;2023-09-19T12:18:29;21.90;99.70
16781;DHT22;8507;50.056;8.248;2023-09-19T12:20:55;21.90;99.90
16781;DHT22;8507;50.056;8.248;2023-09-19T12:23:22;22.20;99.90
16781;DHT22;8507;50.056;8.248;2023-09-19T12:25:48;22.20;99.60
16781;DHT22;8507;50.056;8.248;2023-09-19T12:28:18;22.10;99.10
16781;DHT22;8507;50.056;8.248;2023-09-19T12:30:44;21.80;99.00
16781;DHT22;8507;50.056;8.248;2023-09-19T12:33:19;21.90;99.30
16781;DHT22;8507;50.056;8.248;2023-09-19T12:35:51;22.00;99.10
16781;DHT22;8507;50.056;8.248;2023-09-19T12:38:28;22.10;99.00
16781;DHT22;8507;50.056;8.248;2023-09-19T12:40:57;22.20;99.20
16781;DHT22;8507;50.056;8.248;2023-09-19T12:43:26;22.10;99.40
16781;DHT22;8507;50.056;8.248;2023-09-19T12:45:52;22.20;98.70
16781;DHT22;8507;50.056;8.248;2023-09-19T12:48:25;22.20;98.40
16781;DHT22;8507;50.056;8.248;2023-09-19T12:51:12;22.30;98.60
16781;DHT22;8507;50.056;8.248;2023-09-19T12:56:13;22.70;98.20
16781;DHT22;8507;50.056;8.248;2023-09-19T12:58:59;22.90;98.30
16781;DHT22;8507;50.056;8.248;2023-09-19T13:01:29;23.00;98.20
16781;DHT22;8507;50.056;8.248;2023-09-19T13:04:20;23.00;97.90
16781;DHT22;8507;50.056;8.248;2023-09-19T13:06:52;23.00;97.90
16781;DHT22;8507;50.056;8.248;2023-09-19T13:09:22;23.10;98.10
16781;DHT22;8507;50.056;8.248;2023-09-19T13:11:50;23.00;97.80
16781;DHT22;8507;50.056;8.248;2023-09-19T13:14:23;23.10;97.40
16781;DHT22;8507;50.056;8.248;2023-09-19T13:17:03;22.90;97.20
16781;DHT22;8507;50.056;8.248;2023-09-19T13:19:45;22.90;97.30
16781;DHT22;8507;50.056;8.248;2023-09-19T13:22:41;22.80;97.70
16781;DHT22;8507;50.056;8.248;2023-09-19T13:25:26;22.70;98.20
16781;DHT22;8507;50.056;8.248;2023-09-19T13:27:56;22.70;98.10
16781;DHT22;8507;50.056;8.248;2023-09-19T13:30:26;22.60;98.30
16781;DHT22;8507;50.056;8.248;2023-09-19T13:33:11;22.20;98.50
16781;DHT22;8507;50.056;8.248;2023-09-19T13:35:38;22.20;98.50
16781;DHT22;8507;50.056;8.248;2023-09-19T13:38:05;22.30;98.70
16781;DHT22;8507;50.056;8.248;2023-09-19T13:40:32;22.30;98.40
16781;DHT22;8507;50.056;8.248;2023-09-19T13:43:00;22.50;98.60
16781;DHT22;8507;50.056;8.248;2023-09-19T13:45:26;22.80;98.60
16781;DHT22;8507;50.056;8.248;2023-09-19T13:47:52;22.90;98.30
16781;DHT22;8507;50.056;8.248;2023-09-19T13:50:19;22.90;97.70
16781;DHT22;8507;50.056;8.248;2023-09-19T13:52:52;22.80;97.40
16781;DHT22;8507;50.056;8.248;2023-09-19T13:55:19;22.70;97.70
16781;DHT22;8507;50.056;8.248;2023-09-19T13:57:46;22.60;97.50
16781;DHT22;8507;50.056;8.248;2023-09-19T14:00:12;22.50;97.30
16781;DHT22;8507;50.056;8.248;2023-09-19T14:02:41;22.60;97.60
16781;DHT22;8507;50.056;8.248;2023-09-19T14:05:10;22.50;97.10
16781;DHT22;8507;50.056;8.248;2023-09-19T14:07:37;22.40;97.60
16781;DHT22;8507;50.056;8.248;2023-09-19T14:10:03;22.60;97.70
16781;DHT22;8507;50.056;8.248;2023-09-19T14:12:33;22.60;97.90
16781;DHT22;8507;50.056;8.248;2023-09-19T14:14:59;22.40;98.00
16781;DHT22;8507;50.056;8.248;2023-09-19T14:17:25;22.30;98.00
16781;DHT22;8507;50.056;8.248;2023-09-19T14:19:52;22.30;98.00
16781;DHT22;8507;50.056;8.248;2023-09-19T14:22:17;22.40;98.20
16781;DHT22;8507;50.056;8.248;2023-09-19T14:24:44;22.50;98.30
16781;DHT22;8507;50.056;8.248;2023-09-19T14:27:10;22.70;98.20
16781;DHT22;8507;50.056;8.248;2023-09-19T14:29:36;22.60;97.50
16781;DHT22;8507;50.056;8.248;2023-09-19T14:32:02;22.30;97.60
16781;DHT22;8507;50.056;8.248;2023-09-19T14:34:28;22.10;97.90
16781;DHT22;8507;50.056;8.248;2023-09-19T14:36:53;21.90;98.10
16781;DHT22;8507;50.056;8.248;2023-09-19T14:39:30;21.90;98.60
16781;DHT22;8507;50.056;8.248;2023-09-19T14:41:56;22.00;98.10
16781;DHT22;8507;50.056;8.248;2023-09-19T14:44:21;22.20;98.20
16781;DHT22;8507;50.056;8.248;2023-09-19T14:46:47;22.40;98.20
16781;DHT22;8507;50.056;8.248;2023-09-19T14:49:13;22.40;98.10
16781;DHT22;8507;50.056;8.248;2023-09-19T14:51:40;22.40;98.40
16781;DHT22;8507;50.056;8.248;2023-09-19T14:54:06;22.40;98.50
16781;DHT22;8507;50.056;8.248;2023-09-19T14:56:33;22.50;98.70
16781;DHT22;8507;50.056;8.248;2023-09-19T14:58:58;22.50;98.50
16781;DHT22;8507;50.056;8.248;2023-09-19T15:01:24;22.50;98.60
16781;DHT22;8507;50.056;8.248;2023-09-19T15:03:50;22.50;98.70
16781;DHT22;8507;50.056;8.248;2023-09-19T15:06:16;22.50;98.80
16781;DHT22;8507;50.056;8.248;2023-09-19T15:08:43;22.20;98.90
16781;DHT22;8507;50.056;8.248;2023-09-19T15:11:19;22.20;98.90
16781;DHT22;8507;50.056;8.248;2023-09-19T15:13:46;22.30;98.90
16781;DHT22;8507;50.056;8.248;2023-09-19T15:16:13;22.40;99.10
16781;DHT22;8507;50.056;8.248;2023-09-19T15:18:41;22.40;99.20
16781;DHT22;8507;50.056;8.248;2023-09-19T15:21:09;22.40;99.50
16781;DHT22;8507;50.056;8.248;2023-09-19T15:23:36;22.40;99.40
16781;DHT22;8507;50.056;8.248;2023-09-19T15:26:06;22.40;99.60
16781;DHT22;8507;50.056;8.248;2023-09-19T15:28:33;22.40;99.30
16781;DHT22;8507;50.056;8.248;2023-09-19T15:31:07;22.50;99.40
16781;DHT22;8507;50.056;8.248;2023-09-19T15:33:33;22.40;99.40
16781;DHT22;8507;50.056;8.248;2023-09-19T15:36:06;22.50;99.40
16781;DHT22;8507;50.056;8.248;2023-09-19T15:41:13;22.40;99.40
16781;DHT22;8507;50.056;8.248;2023-09-19T15:43:39;22.20;99.70
16781;DHT22;8507;50.056;8.248;2023-09-19T15:46:04;22.10;99.80
16781;DHT22;8507;50.056;8.248;2023-09-19T15:48:30;22.10;99.90
16781;DHT22;8507;50.056;8.248;2023-09-19T15:50:55;22.20;99.90
16781;DHT22;8507;50.056;8.248;2023-09-19T15:53:21;22.00;99.90
16781;DHT22;8507;50.056;8.248;2023-09-19T15:55:46;22.00;99.90
16781;DHT22;8507;50.056;8.248;2023-09-19T15:58:12;21.80;99.90
16781;DHT22;8507;50.056;8.248;2023-09-19T16:00:39;21.90;99.90
16781;DHT22;8507;50.056;8.248;2023-09-19T16:03:05;21.80;99.90
16781;DHT22;8507;50.056;8.248;2023-09-19T16:05:37;21.70;99.90
16781;DHT22;8507;50.056;8.248;2023-09-19T16:08:05;21.60;99.90
16781;DHT22;8507;50.056;8.248;2023-09-19T16:10:34;21.60;99.90
16781;DHT22;8507;50.056;8.248;2023-09-19T16:13:01;21.60;99.90
16781;DHT22;8507;50.056;8.248;2023-09-19T16:15:26;21.60;99.90
16781;DHT22;8507;50.056;8.248;2023-09-19T16:17:52;21.50;99.90
16781;DHT22;8507;50.056;8.248;2023-09-19T16:20:17;21.50;99.90
16781;DHT22;8507;50.056;8.248;2023-09-19T16:22:45;21.50;99.90
16781;DHT22;8507;50.056;8.248;2023-09-19T16:25:11;21.50;99.90
16781;DHT22;8507;50.056;8.248;2023-09-19T16:27:37;21.50;99.90
16781;DHT22;8507;50.056;8.248;2023-09-19T16:30:03;21.50;99.90
16781;DHT22;8507;50.056;8.248;2023-09-19T16:32:30;21.50;99.90
16781;DHT22;8507;50.056;8.248;2023-09-19T16:34:55;21.50;99.90
16781;DHT22;8507;50.056;8.248;2023-09-19T16:37:21;21.50;99.90
16781;DHT22;8507;50.056;8.248;2023-09-19T16:39:47;21.40;99.90
16781;DHT22;8507;50.056;8.248;2023-09-19T16:42:12;21.40;99.90
16781;DHT22;8507;50.056;8.248;2023-09-19T16:44:41;21.40;99.90
16781;DHT22;8507;50.056;8.248;2023-09-19T16:47:06;21.40;99.90